sensor_id;sensor_type;location;lat;lon;timestamp;temperature;humidity
75466;HTU21D;64049;46.290;44.240;2024-03-02T00:00:05;-2.69;77.60
75466;HTU21D;64049;46.290;44.240;2024-03-02T00:02:44;-2.68;77.62
75466;HTU21D;64049;46.290;44.240;2024-03-02T00:05:16;-2.68;77.66
75466;HTU21D;64049;46.290;44.240;2024-03-02T00:07:44;-2.72;77.53
75466;HTU21D;64049;46.290;44.240;2024-03-02T00:10:16;-2.75;77.46
75466;HTU21D;64049;46.290;44.240;2024-03-02T00:12:47;-2.76;77.49
75466;HTU21D;64049;46.290;44.240;2024-03-02T00:17:57;-2.72;77.47
75466;HTU21D;64049;46.290;44.240;2024-03-02T00:20:24;-2.72;77.40
75466;HTU21D;64049;46.290;44.240;2024-03-02T00:23:16;-2.74;77.37
75466;HTU21D;64049;46.290;44.240;2024-03-02T00:25:53;-2.76;77.31
75466;HTU21D;64049;46.290;44.240;2024-03-02T00:28:21;-2.80;77.18
75466;HTU21D;64049;46.290;44.240;2024-03-02T00:33:32;-2.82;77.13
75466;HTU21D;64049;46.290;44.240;2024-03-02T00:35:59;-2.83;77.01
75466;HTU21D;64049;46.290;44.240;2024-03-02T00:38:26;-2.82;76.99
75466;HTU21D;64049;46.290;44.240;2024-03-02T00:40:53;-2.84;76.83
75466;HTU21D;64049;46.290;44.240;2024-03-02T00:45:48;-2.86;76.75
75466;HTU21D;64049;46.290;44.240;2024-03-02T00:48:15;-2.87;76.70
75466;HTU21D;64049;46.290;44.240;2024-03-02T00:50:42;-2.86;76.69
75466;HTU21D;64049;46.290;44.240;2024-03-02T00:53:11;-2.84;76.71
75466;HTU21D;64049;46.290;44.240;2024-03-02T00:55:37;-2.83;76.58
75466;HTU21D;64049;46.290;44.240;2024-03-02T00:58:03;-2.81;76.59
75466;HTU21D;64049;46.290;44.240;2024-03-02T01:00:29;-2.81;76.57
75466;HTU21D;64049;46.290;44.240;2024-03-02T01:02:55;-2.79;76.54
75466;HTU21D;64049;46.290;44.240;2024-03-02T01:05:21;-2.79;76.48
75466;HTU21D;64049;46.290;44.240;2024-03-02T01:07:47;-2.80;76.47
75466;HTU21D;64049;46.290;44.240;2024-03-02T01:10:13;-2.82;76.39
75466;HTU21D;64049;46.290;44.240;2024-03-02T01:12:39;-2.80;76.41
75466;HTU21D;64049;46.290;44.240;2024-03-02T01:15:05;-2.78;76.35
75466;HTU21D;64049;46.290;44.240;2024-03-02T01:17:33;-2.75;76.41
75466;HTU21D;64049;46.290;44.240;2024-03-02T01:19:59;-2.74;76.34
75466;HTU21D;64049;46.290;44.240;2024-03-02T01:22:25;-2.73;76.31
75466;HTU21D;64049;46.290;44.240;2024-03-02T01:24:51;-2.74;76.20
75466;HTU21D;64049;46.290;44.240;2024-03-02T01:27:17;-2.75;76.16
75466;HTU21D;64049;46.290;44.240;2024-03-02T01:29:44;-2.74;76.18
75466;HTU21D;64049;46.290;44.240;2024-03-02T01:32:10;-2.75;76.09
75466;HTU21D;64049;46.290;44.240;2024-03-02T01:34:36;-2.75;76.07
75466;HTU21D;64049;46.290;44.240;2024-03-02T01:37:02;-2.75;76.00
75466;HTU21D;64049;46.290;44.240;2024-03-02T01:39:27;-2.75;76.04
75466;HTU21D;64049;46.290;44.240;2024-03-02T01:41:53;-2.73;76.05
75466;HTU21D;64049;46.290;44.240;2024-03-02T01:44:19;-2.72;76.03
75466;HTU21D;64049;46.290;44.240;2024-03-02T01:46:45;-2.69;76.03
75466;HTU21D;64049;46.290;44.240;2024-03-02T01:49:11;-2.68;76.04
75466;HTU21D;64049;46.290;44.240;2024-03-02T01:51:37;-2.66;76.04
75466;HTU21D;64049;46.290;44.240;2024-03-02T01:54:02;-2.63;76.07
75466;HTU21D;64049;46.290;44.240;2024-03-02T01:56:28;-2.62;76.02
75466;HTU21D;64049;46.290;44.240;2024-03-02T01:58:54;-2.62;75.95
75466;HTU21D;64049;46.290;44.240;2024-03-02T02:01:20;-2.62;75.86
75466;HTU21D;64049;46.290;44.240;2024-03-02T02:03:46;-2.62;75.83
75466;HTU21D;64049;46.290;44.240;2024-03-02T02:06:12;-2.61;75.82
75466;HTU21D;64049;46.290;44.240;2024-03-02T02:08:38;-2.58;75.78
75466;HTU21D;64049;46.290;44.240;2024-03-02T02:11:04;-2.54;75.72
75466;HTU21D;64049;46.290;44.240;2024-03-02T02:13:30;-2.52;75.69
75466;HTU21D;64049;46.290;44.240;2024-03-02T02:16:04;-2.53;75.61
75466;HTU21D;64049;46.290;44.240;2024-03-02T02:18:30;-2.52;75.66
75466;HTU21D;64049;46.290;44.240;2024-03-02T02:20:56;-2.52;75.67
75466;HTU21D;64049;46.290;44.240;2024-03-02T02:23:22;-2.52;75.62
75466;HTU21D;64049;46.290;44.240;2024-03-02T02:25:48;-2.53;75.55
75466;HTU21D;64049;46.290;44.240;2024-03-02T02:28:14;-2.52;75.57
75466;HTU21D;64049;46.290;44.240;2024-03-02T02:30:40;-2.52;75.55
75466;HTU21D;64049;46.290;44.240;2024-03-02T02:33:05;-2.54;75.47
75466;HTU21D;64049;46.290;44.240;2024-03-02T02:35:31;-2.56;75.45
75466;HTU21D;64049;46.290;44.240;2024-03-02T02:37:58;-2.57;75.39
75466;HTU21D;64049;46.290;44.240;2024-03-02T02:40:27;-2.59;75.31
75466;HTU21D;64049;46.290;44.240;2024-03-02T02:42:56;-2.60;75.31
75466;HTU21D;64049;46.290;44.240;2024-03-02T02:45:22;-2.61;75.37
75466;HTU21D;64049;46.290;44.240;2024-03-02T02:47:48;-2.60;75.35
75466;HTU21D;64049;46.290;44.240;2024-03-02T02:50:14;-2.59;75.34
75466;HTU21D;64049;46.290;44.240;2024-03-02T02:52:41;-2.54;75.30
75466;HTU21D;64049;46.290;44.240;2024-03-02T02:55:09;-2.49;75.34
75466;HTU21D;64049;46.290;44.240;2024-03-02T02:57:36;-2.49;75.17
75466;HTU21D;64049;46.290;44.240;2024-03-02T03:00:13;-2.47;75.21
75466;HTU21D;64049;46.290;44.240;2024-03-02T03:02:46;-2.44;75.23
75466;HTU21D;64049;46.290;44.240;2024-03-02T03:05:13;-2.39;75.18
75466;HTU21D;64049;46.290;44.240;2024-03-02T03:07:40;-2.37;75.12
75466;HTU21D;64049;46.290;44.240;2024-03-02T03:10:08;-2.38;75.05
75466;HTU21D;64049;46.290;44.240;2024-03-02T03:12:37;-2.43;74.97
75466;HTU21D;64049;46.290;44.240;2024-03-02T03:15:03;-2.45;74.98
75466;HTU21D;64049;46.290;44.240;2024-03-02T03:17:30;-2.46;74.99
75466;HTU21D;64049;46.290;44.240;2024-03-02T03:19:56;-2.47;74.97
75466;HTU21D;64049;46.290;44.240;2024-03-02T03:22:22;-2.47;74.99
75466;HTU21D;64049;46.290;44.240;2024-03-02T03:24:48;-2.48;74.95
75466;HTU21D;64049;46.290;44.240;2024-03-02T03:27:14;-2.49;74.92
75466;HTU21D;64049;46.290;44.240;2024-03-02T03:29:40;-2.48;74.86
75466;HTU21D;64049;46.290;44.240;2024-03-02T03:32:06;-2.50;74.84
75466;HTU21D;64049;46.290;44.240;2024-03-02T03:34:33;-2.49;74.79
75466;HTU21D;64049;46.290;44.240;2024-03-02T03:36:59;-2.50;74.76
75466;HTU21D;64049;46.290;44.240;2024-03-02T03:39:24;-2.52;74.70
75466;HTU21D;64049;46.290;44.240;2024-03-02T03:41:50;-2.52;74.78
75466;HTU21D;64049;46.290;44.240;2024-03-02T03:44:16;-2.53;74.66
75466;HTU21D;64049;46.290;44.240;2024-03-02T03:46:42;-2.53;74.64
75466;HTU21D;64049;46.290;44.240;2024-03-02T03:49:08;-2.52;74.64
75466;HTU21D;64049;46.290;44.240;2024-03-02T03:51:34;-2.52;74.57
75466;HTU21D;64049;46.290;44.240;2024-03-02T03:54:01;-2.52;74.54
75466;HTU21D;64049;46.290;44.240;2024-03-02T03:56:27;-2.49;74.56
75466;HTU21D;64049;46.290;44.240;2024-03-02T03:58:53;-2.47;74.54
75466;HTU21D;64049;46.290;44.240;2024-03-02T04:01:18;-2.44;74.51
75466;HTU21D;64049;46.290;44.240;2024-03-02T04:03:45;-2.38;74.48
75466;HTU21D;64049;46.290;44.240;2024-03-02T04:06:11;-2.33;74.40
75466;HTU21D;64049;46.290;44.240;2024-03-02T04:08:37;-2.29;74.31
75466;HTU21D;64049;46.290;44.240;2024-03-02T04:11:03;-2.26;74.25
75466;HTU21D;64049;46.290;44.240;2024-03-02T04:13:30;-2.21;74.22
75466;HTU21D;64049;46.290;44.240;2024-03-02T04:15:56;-2.15;74.22
75466;HTU21D;64049;46.290;44.240;2024-03-02T04:18:22;-2.08;74.16
75466;HTU21D;64049;46.290;44.240;2024-03-02T04:20:47;-2.00;74.06
75466;HTU21D;64049;46.290;44.240;2024-03-02T04:23:13;-1.93;73.95
75466;HTU21D;64049;46.290;44.240;2024-03-02T04:25:39;-1.91;73.84
75466;HTU21D;64049;46.290;44.240;2024-03-02T04:28:05;-1.84;73.82
75466;HTU21D;64049;46.290;44.240;2024-03-02T04:30:31;-1.76;73.74
75466;HTU21D;64049;46.290;44.240;2024-03-02T04:32:57;-1.70;73.65
75466;HTU21D;64049;46.290;44.240;2024-03-02T04:35:23;-1.63;73.57
75466;HTU21D;64049;46.290;44.240;2024-03-02T04:37:48;-1.56;73.52
75466;HTU21D;64049;46.290;44.240;2024-03-02T04:40:14;-1.49;73.45
75466;HTU21D;64049;46.290;44.240;2024-03-02T04:42:40;-1.45;73.37
75466;HTU21D;64049;46.290;44.240;2024-03-02T04:45:07;-1.39;73.29
75466;HTU21D;64049;46.290;44.240;2024-03-02T04:47:33;-1.32;73.25
75466;HTU21D;64049;46.290;44.240;2024-03-02T04:49:59;-1.28;73.17
75466;HTU21D;64049;46.290;44.240;2024-03-02T04:52:24;-1.23;73.14
75466;HTU21D;64049;46.290;44.240;2024-03-02T04:54:50;-1.17;73.10
75466;HTU21D;64049;46.290;44.240;2024-03-02T04:57:35;-1.11;73.05
75466;HTU21D;64049;46.290;44.240;2024-03-02T05:00:01;-1.03;73.00
75466;HTU21D;64049;46.290;44.240;2024-03-02T05:02:27;-0.96;72.92
75466;HTU21D;64049;46.290;44.240;2024-03-02T05:04:53;-0.86;72.85
75466;HTU21D;64049;46.290;44.240;2024-03-02T05:07:18;-0.70;72.73
75466;HTU21D;64049;46.290;44.240;2024-03-02T05:09:44;-0.56;72.49
75466;HTU21D;64049;46.290;44.240;2024-03-02T05:12:10;-0.41;72.30
75466;HTU21D;64049;46.290;44.240;2024-03-02T05:14:39;-0.30;72.10
75466;HTU21D;64049;46.290;44.240;2024-03-02T05:17:05;-0.16;71.87
75466;HTU21D;64049;46.290;44.240;2024-03-02T05:19:31;-0.07;71.71
75466;HTU21D;64049;46.290;44.240;2024-03-02T05:21:57;-0.01;71.59
75466;HTU21D;64049;46.290;44.240;2024-03-02T05:24:22;0.08;71.52
75466;HTU21D;64049;46.290;44.240;2024-03-02T05:26:48;0.17;71.38
75466;HTU21D;64049;46.290;44.240;2024-03-02T05:29:14;0.29;71.23
75466;HTU21D;64049;46.290;44.240;2024-03-02T05:31:40;0.39;71.03
75466;HTU21D;64049;46.290;44.240;2024-03-02T05:34:06;0.50;70.81
75466;HTU21D;64049;46.290;44.240;2024-03-02T05:36:32;0.58;70.63
75466;HTU21D;64049;46.290;44.240;2024-03-02T05:38:58;0.69;70.44
75466;HTU21D;64049;46.290;44.240;2024-03-02T05:41:24;0.83;70.13
75466;HTU21D;64049;46.290;44.240;2024-03-02T05:43:49;0.97;69.94
75466;HTU21D;64049;46.290;44.240;2024-03-02T05:46:15;1.08;69.71
75466;HTU21D;64049;46.290;44.240;2024-03-02T05:48:41;1.21;69.42
75466;HTU21D;64049;46.290;44.240;2024-03-02T05:51:07;1.31;69.12
75466;HTU21D;64049;46.290;44.240;2024-03-02T05:53:33;1.43;68.82
75466;HTU21D;64049;46.290;44.240;2024-03-02T05:55:59;1.60;68.46
75466;HTU21D;64049;46.290;44.240;2024-03-02T05:58:25;1.76;68.13
75466;HTU21D;64049;46.290;44.240;2024-03-02T06:01:03;1.99;67.62
75466;HTU21D;64049;46.290;44.240;2024-03-02T06:03:31;2.24;67.20
75466;HTU21D;64049;46.290;44.240;2024-03-02T06:05:57;2.46;66.80
75466;HTU21D;64049;46.290;44.240;2024-03-02T06:08:23;2.68;65.87
75466;HTU21D;64049;46.290;44.240;2024-03-02T06:10:48;2.90;65.76
75466;HTU21D;64049;46.290;44.240;2024-03-02T06:13:14;3.12;65.33
75466;HTU21D;64049;46.290;44.240;2024-03-02T06:15:40;3.34;64.90
75466;HTU21D;64049;46.290;44.240;2024-03-02T06:18:06;3.59;64.47
75466;HTU21D;64049;46.290;44.240;2024-03-02T06:20:33;3.83;63.98
75466;HTU21D;64049;46.290;44.240;2024-03-02T06:22:59;4.01;63.51
75466;HTU21D;64049;46.290;44.240;2024-03-02T06:25:25;4.18;62.95
75466;HTU21D;64049;46.290;44.240;2024-03-02T06:27:51;4.27;62.62
75466;HTU21D;64049;46.290;44.240;2024-03-02T06:30:17;4.34;62.19
75466;HTU21D;64049;46.290;44.240;2024-03-02T06:32:43;4.43;62.09
75466;HTU21D;64049;46.290;44.240;2024-03-02T06:35:09;4.56;61.38
75466;HTU21D;64049;46.290;44.240;2024-03-02T06:37:36;4.64;60.80
75466;HTU21D;64049;46.290;44.240;2024-03-02T06:40:04;4.77;60.42
75466;HTU21D;64049;46.290;44.240;2024-03-02T06:42:30;4.86;59.90
75466;HTU21D;64049;46.290;44.240;2024-03-02T06:44:59;4.96;59.36
75466;HTU21D;64049;46.290;44.240;2024-03-02T06:47:25;5.09;58.81
75466;HTU21D;64049;46.290;44.240;2024-03-02T06:59:35;5.47;56.38
75466;HTU21D;64049;46.290;44.240;2024-03-02T07:02:01;5.56;55.89
75466;HTU21D;64049;46.290;44.240;2024-03-02T07:12:17;5.81;55.04
75466;HTU21D;64049;46.290;44.240;2024-03-02T07:14:43;5.84;54.10
75466;HTU21D;64049;46.290;44.240;2024-03-02T07:17:28;5.94;53.57
75466;HTU21D;64049;46.290;44.240;2024-03-02T07:19:54;6.09;53.64
75466;HTU21D;64049;46.290;44.240;2024-03-02T07:22:20;6.26;52.69
75466;HTU21D;64049;46.290;44.240;2024-03-02T07:24:46;6.36;52.18
75466;HTU21D;64049;46.290;44.240;2024-03-02T07:27:13;6.46;51.33
75466;HTU21D;64049;46.290;44.240;2024-03-02T07:29:39;6.54;50.75
75466;HTU21D;64049;46.290;44.240;2024-03-02T07:32:08;6.57;50.31
75466;HTU21D;64049;46.290;44.240;2024-03-02T07:34:34;6.65;49.24
75466;HTU21D;64049;46.290;44.240;2024-03-02T07:36:59;6.69;49.48
75466;HTU21D;64049;46.290;44.240;2024-03-02T07:39:25;6.80;49.30
75466;HTU21D;64049;46.290;44.240;2024-03-02T07:41:52;6.93;48.42
75466;HTU21D;64049;46.290;44.240;2024-03-02T07:44:18;7.00;47.75
75466;HTU21D;64049;46.290;44.240;2024-03-02T07:46:48;7.07;47.70
75466;HTU21D;64049;46.290;44.240;2024-03-02T07:49:20;7.11;46.36
75466;HTU21D;64049;46.290;44.240;2024-03-02T07:51:47;7.19;46.97
75466;HTU21D;64049;46.290;44.240;2024-03-02T07:54:13;7.37;46.71
75466;HTU21D;64049;46.290;44.240;2024-03-02T07:56:39;7.49;45.70
75466;HTU21D;64049;46.290;44.240;2024-03-02T07:59:05;7.61;44.68
75466;HTU21D;64049;46.290;44.240;2024-03-02T08:01:32;7.62;43.74
75466;HTU21D;64049;46.290;44.240;2024-03-02T08:03:58;7.69;43.82
75466;HTU21D;64049;46.290;44.240;2024-03-02T08:06:26;7.82;43.35
75466;HTU21D;64049;46.290;44.240;2024-03-02T08:08:54;7.98;43.29
75466;HTU21D;64049;46.290;44.240;2024-03-02T08:11:20;8.11;42.31
75466;HTU21D;64049;46.290;44.240;2024-03-02T08:13:47;8.21;41.54
75466;HTU21D;64049;46.290;44.240;2024-03-02T08:16:14;8.43;41.55
75466;HTU21D;64049;46.290;44.240;2024-03-02T08:18:40;8.53;41.00
75466;HTU21D;64049;46.290;44.240;2024-03-02T08:21:06;8.55;40.45
75466;HTU21D;64049;46.290;44.240;2024-03-02T08:23:34;8.57;40.70
75466;HTU21D;64049;46.290;44.240;2024-03-02T08:26:00;8.57;39.43
75466;HTU21D;64049;46.290;44.240;2024-03-02T08:28:26;8.61;40.34
75466;HTU21D;64049;46.290;44.240;2024-03-02T08:30:52;8.62;39.82
75466;HTU21D;64049;46.290;44.240;2024-03-02T08:33:18;8.51;39.07
75466;HTU21D;64049;46.290;44.240;2024-03-02T08:35:44;8.47;39.17
75466;HTU21D;64049;46.290;44.240;2024-03-02T08:38:10;8.50;38.90
75466;HTU21D;64049;46.290;44.240;2024-03-02T08:40:36;8.58;39.04
75466;HTU21D;64049;46.290;44.240;2024-03-02T08:43:02;8.71;39.22
75466;HTU21D;64049;46.290;44.240;2024-03-02T08:45:28;8.80;38.45
75466;HTU21D;64049;46.290;44.240;2024-03-02T08:47:54;8.80;38.33
75466;HTU21D;64049;46.290;44.240;2024-03-02T08:50:20;8.92;38.22
75466;HTU21D;64049;46.290;44.240;2024-03-02T08:52:46;9.15;38.45
75466;HTU21D;64049;46.290;44.240;2024-03-02T08:55:12;9.33;37.46
75466;HTU21D;64049;46.290;44.240;2024-03-02T08:57:39;9.38;37.28
75466;HTU21D;64049;46.290;44.240;2024-03-02T09:00:06;9.42;37.57
75466;HTU21D;64049;46.290;44.240;2024-03-02T09:02:33;9.51;37.01
75466;HTU21D;64049;46.290;44.240;2024-03-02T09:04:59;9.59;36.71
75466;HTU21D;64049;46.290;44.240;2024-03-02T09:07:25;9.64;36.50
75466;HTU21D;64049;46.290;44.240;2024-03-02T09:09:51;9.63;36.10
75466;HTU21D;64049;46.290;44.240;2024-03-02T09:12:18;9.67;35.66
75466;HTU21D;64049;46.290;44.240;2024-03-02T09:14:44;9.76;36.05
75466;HTU21D;64049;46.290;44.240;2024-03-02T09:17:11;9.91;35.22
75466;HTU21D;64049;46.290;44.240;2024-03-02T09:19:38;9.96;34.68
75466;HTU21D;64049;46.290;44.240;2024-03-02T09:22:04;10.01;34.29
75466;HTU21D;64049;46.290;44.240;2024-03-02T09:24:31;10.16;34.89
75466;HTU21D;64049;46.290;44.240;2024-03-02T09:26:59;10.40;34.70
75466;HTU21D;64049;46.290;44.240;2024-03-02T09:29:25;10.40;33.51
75466;HTU21D;64049;46.290;44.240;2024-03-02T09:31:50;10.45;33.70
75466;HTU21D;64049;46.290;44.240;2024-03-02T09:34:17;10.50;32.83
75466;HTU21D;64049;46.290;44.240;2024-03-02T09:36:43;10.57;32.65
75466;HTU21D;64049;46.290;44.240;2024-03-02T09:39:09;10.71;33.12
75466;HTU21D;64049;46.290;44.240;2024-03-02T09:41:37;10.90;32.78
75466;HTU21D;64049;46.290;44.240;2024-03-02T09:44:04;10.99;32.04
75466;HTU21D;64049;46.290;44.240;2024-03-02T09:46:30;10.99;32.11
75466;HTU21D;64049;46.290;44.240;2024-03-02T09:48:56;10.70;32.10
75466;HTU21D;64049;46.290;44.240;2024-03-02T09:51:23;10.46;32.14
75466;HTU21D;64049;46.290;44.240;2024-03-02T09:53:49;10.48;32.12
75466;HTU21D;64049;46.290;44.240;2024-03-02T09:56:15;10.60;31.91
75466;HTU21D;64049;46.290;44.240;2024-03-02T09:58:41;10.62;31.71
75466;HTU21D;64049;46.290;44.240;2024-03-02T10:01:08;10.57;31.56
75466;HTU21D;64049;46.290;44.240;2024-03-02T10:03:37;10.45;31.20
75466;HTU21D;64049;46.290;44.240;2024-03-02T10:08:45;10.40;31.14
75466;HTU21D;64049;46.290;44.240;2024-03-02T10:11:10;10.48;30.93
75466;HTU21D;64049;46.290;44.240;2024-03-02T10:13:36;10.53;29.88
75466;HTU21D;64049;46.290;44.240;2024-03-02T10:16:12;10.59;30.23
75466;HTU21D;64049;46.290;44.240;2024-03-02T10:18:38;10.72;30.57
75466;HTU21D;64049;46.290;44.240;2024-03-02T10:21:13;10.86;30.33
75466;HTU21D;64049;46.290;44.240;2024-03-02T10:23:40;10.97;29.64
75466;HTU21D;64049;46.290;44.240;2024-03-02T10:26:17;11.11;29.71
75466;HTU21D;64049;46.290;44.240;2024-03-02T10:28:47;11.17;29.57
75466;HTU21D;64049;46.290;44.240;2024-03-02T10:31:13;11.12;29.75
75466;HTU21D;64049;46.290;44.240;2024-03-02T10:33:40;11.23;29.95
75466;HTU21D;64049;46.290;44.240;2024-03-02T10:36:06;11.38;29.58
75466;HTU21D;64049;46.290;44.240;2024-03-02T10:38:33;11.38;29.49
75466;HTU21D;64049;46.290;44.240;2024-03-02T10:40:59;11.45;29.15
75466;HTU21D;64049;46.290;44.240;2024-03-02T10:43:26;11.46;29.19
75466;HTU21D;64049;46.290;44.240;2024-03-02T10:45:52;11.46;29.38
75466;HTU21D;64049;46.290;44.240;2024-03-02T10:48:18;11.45;29.11
75466;HTU21D;64049;46.290;44.240;2024-03-02T10:50:45;11.44;28.68
75466;HTU21D;64049;46.290;44.240;2024-03-02T10:53:11;11.43;28.99
75466;HTU21D;64049;46.290;44.240;2024-03-02T10:55:37;11.36;28.94
75466;HTU21D;64049;46.290;44.240;2024-03-02T10:58:04;11.44;29.55
75466;HTU21D;64049;46.290;44.240;2024-03-02T11:00:34;11.30;29.67
75466;HTU21D;64049;46.290;44.240;2024-03-02T11:03:07;11.23;29.17
75466;HTU21D;64049;46.290;44.240;2024-03-02T11:05:40;11.17;28.71
75466;HTU21D;64049;46.290;44.240;2024-03-02T11:08:14;11.19;28.65
75466;HTU21D;64049;46.290;44.240;2024-03-02T11:10:54;11.24;28.42
75466;HTU21D;64049;46.290;44.240;2024-03-02T11:13:33;11.30;28.36
75466;HTU21D;64049;46.290;44.240;2024-03-02T11:16:05;11.26;27.97
75466;HTU21D;64049;46.290;44.240;2024-03-02T11:18:32;11.24;27.84
75466;HTU21D;64049;46.290;44.240;2024-03-02T11:20:59;11.37;28.16
75466;HTU21D;64049;46.290;44.240;2024-03-02T11:23:35;11.38;27.25
75466;HTU21D;64049;46.290;44.240;2024-03-02T11:26:20;11.28;27.18
75466;HTU21D;64049;46.290;44.240;2024-03-02T11:28:47;11.24;27.54
75466;HTU21D;64049;46.290;44.240;2024-03-02T11:31:13;11.28;27.55
75466;HTU21D;64049;46.290;44.240;2024-03-02T11:33:39;11.33;27.49
75466;HTU21D;64049;46.290;44.240;2024-03-02T11:36:09;11.26;27.04
75466;HTU21D;64049;46.290;44.240;2024-03-02T11:38:35;11.17;26.49
75466;HTU21D;64049;46.290;44.240;2024-03-02T11:41:03;11.18;26.60
75466;HTU21D;64049;46.290;44.240;2024-03-02T11:43:32;11.22;26.82
75466;HTU21D;64049;46.290;44.240;2024-03-02T11:46:00;11.36;27.03
75466;HTU21D;64049;46.290;44.240;2024-03-02T11:48:26;11.46;26.99
75466;HTU21D;64049;46.290;44.240;2024-03-02T11:50:52;11.55;26.88
75466;HTU21D;64049;46.290;44.240;2024-03-02T11:53:20;11.58;26.25
75466;HTU21D;64049;46.290;44.240;2024-03-02T12:07:58;11.91;24.42
75466;HTU21D;64049;46.290;44.240;2024-03-02T12:10:25;11.81;24.78
75466;HTU21D;64049;46.290;44.240;2024-03-02T12:13:04;11.64;24.80
75466;HTU21D;64049;46.290;44.240;2024-03-02T12:15:33;11.47;25.10
75466;HTU21D;64049;46.290;44.240;2024-03-02T12:18:01;11.22;25.27
75466;HTU21D;64049;46.290;44.240;2024-03-02T12:20:29;11.08;25.55
75466;HTU21D;64049;46.290;44.240;2024-03-02T12:22:57;11.08;25.96
75466;HTU21D;64049;46.290;44.240;2024-03-02T12:25:24;10.98;25.96
75466;HTU21D;64049;46.290;44.240;2024-03-02T12:27:56;10.93;26.09
75466;HTU21D;64049;46.290;44.240;2024-03-02T12:30:23;11.12;26.20
75466;HTU21D;64049;46.290;44.240;2024-03-02T12:32:49;11.15;26.10
75466;HTU21D;64049;46.290;44.240;2024-03-02T12:35:16;11.45;25.57
75466;HTU21D;64049;46.290;44.240;2024-03-02T12:37:44;11.53;25.20
75466;HTU21D;64049;46.290;44.240;2024-03-02T12:40:11;11.79;24.62
75466;HTU21D;64049;46.290;44.240;2024-03-02T12:42:39;11.99;24.16
75466;HTU21D;64049;46.290;44.240;2024-03-02T12:45:06;11.84;24.77
75466;HTU21D;64049;46.290;44.240;2024-03-02T12:47:33;12.02;24.56
75466;HTU21D;64049;46.290;44.240;2024-03-02T12:50:00;12.15;24.18
75466;HTU21D;64049;46.290;44.240;2024-03-02T12:52:26;11.72;24.81
75466;HTU21D;64049;46.290;44.240;2024-03-02T12:54:52;11.45;25.41
75466;HTU21D;64049;46.290;44.240;2024-03-02T12:57:27;11.53;25.49
75466;HTU21D;64049;46.290;44.240;2024-03-02T13:00:00;11.29;25.77
75466;HTU21D;64049;46.290;44.240;2024-03-02T13:02:30;11.20;26.42
75466;HTU21D;64049;46.290;44.240;2024-03-02T13:04:58;11.55;26.47
75466;HTU21D;64049;46.290;44.240;2024-03-02T13:07:25;11.85;26.47
75466;HTU21D;64049;46.290;44.240;2024-03-02T13:09:53;11.79;26.83
75466;HTU21D;64049;46.290;44.240;2024-03-02T13:12:21;11.38;27.24
75466;HTU21D;64049;46.290;44.240;2024-03-02T13:22:21;12.07;27.44
75466;HTU21D;64049;46.290;44.240;2024-03-02T13:24:49;12.48;27.03
75466;HTU21D;64049;46.290;44.240;2024-03-02T13:27:15;12.70;26.99
75466;HTU21D;64049;46.290;44.240;2024-03-02T13:29:42;13.02;26.45
75466;HTU21D;64049;46.290;44.240;2024-03-02T13:32:09;13.34;26.27
75466;HTU21D;64049;46.290;44.240;2024-03-02T13:34:35;13.15;26.46
75466;HTU21D;64049;46.290;44.240;2024-03-02T13:37:03;12.78;26.18
75466;HTU21D;64049;46.290;44.240;2024-03-02T13:39:30;12.15;26.75
75466;HTU21D;64049;46.290;44.240;2024-03-02T13:41:58;11.99;26.73
75466;HTU21D;64049;46.290;44.240;2024-03-02T13:44:31;11.16;27.45
75466;HTU21D;64049;46.290;44.240;2024-03-02T13:46:59;10.44;28.40
75466;HTU21D;64049;46.290;44.240;2024-03-02T13:49:25;10.01;28.97
75466;HTU21D;64049;46.290;44.240;2024-03-02T13:52:07;9.42;29.79
75466;HTU21D;64049;46.290;44.240;2024-03-02T13:54:39;8.85;30.42
75466;HTU21D;64049;46.290;44.240;2024-03-02T13:57:06;8.37;30.95
75466;HTU21D;64049;46.290;44.240;2024-03-02T13:59:33;7.99;31.22
75466;HTU21D;64049;46.290;44.240;2024-03-02T14:02:01;7.64;31.41
75466;HTU21D;64049;46.290;44.240;2024-03-02T14:04:27;7.35;31.77
75466;HTU21D;64049;46.290;44.240;2024-03-02T14:06:54;7.11;32.14
75466;HTU21D;64049;46.290;44.240;2024-03-02T14:09:20;6.87;32.51
75466;HTU21D;64049;46.290;44.240;2024-03-02T14:11:46;6.68;32.76
75466;HTU21D;64049;46.290;44.240;2024-03-02T14:14:12;6.48;32.99
75466;HTU21D;64049;46.290;44.240;2024-03-02T14:16:38;6.28;33.23
75466;HTU21D;64049;46.290;44.240;2024-03-02T14:19:04;6.14;33.47
75466;HTU21D;64049;46.290;44.240;2024-03-02T14:21:30;5.96;33.82
75466;HTU21D;64049;46.290;44.240;2024-03-02T14:23:56;5.80;34.12
75466;HTU21D;64049;46.290;44.240;2024-03-02T14:26:22;5.66;34.42
75466;HTU21D;64049;46.290;44.240;2024-03-02T14:28:48;5.54;34.63
75466;HTU21D;64049;46.290;44.240;2024-03-02T14:31:14;5.39;34.92
75466;HTU21D;64049;46.290;44.240;2024-03-02T14:33:40;5.24;35.24
75466;HTU21D;64049;46.290;44.240;2024-03-02T14:36:06;5.09;35.53
75466;HTU21D;64049;46.290;44.240;2024-03-02T14:38:32;4.97;35.72
75466;HTU21D;64049;46.290;44.240;2024-03-02T14:40:58;4.84;35.95
75466;HTU21D;64049;46.290;44.240;2024-03-02T14:43:24;4.73;36.12
75466;HTU21D;64049;46.290;44.240;2024-03-02T14:45:50;4.64;36.18
75466;HTU21D;64049;46.290;44.240;2024-03-02T14:48:16;4.54;36.27
75466;HTU21D;64049;46.290;44.240;2024-03-02T14:50:42;4.46;36.33
75466;HTU21D;64049;46.290;44.240;2024-03-02T14:53:08;4.36;36.43
75466;HTU21D;64049;46.290;44.240;2024-03-02T14:55:34;4.21;36.68
75466;HTU21D;64049;46.290;44.240;2024-03-02T14:58:00;4.12;36.85
75466;HTU21D;64049;46.290;44.240;2024-03-02T15:00:25;3.98;37.01
75466;HTU21D;64049;46.290;44.240;2024-03-02T15:02:51;3.86;37.08
75466;HTU21D;64049;46.290;44.240;2024-03-02T15:05:17;3.82;36.98
75466;HTU21D;64049;46.290;44.240;2024-03-02T15:07:43;3.71;36.93
75466;HTU21D;64049;46.290;44.240;2024-03-02T15:10:10;3.63;36.91
75466;HTU21D;64049;46.290;44.240;2024-03-02T15:12:37;3.58;36.85
75466;HTU21D;64049;46.290;44.240;2024-03-02T15:15:03;3.53;36.86
75466;HTU21D;64049;46.290;44.240;2024-03-02T15:17:30;3.47;36.80
75466;HTU21D;64049;46.290;44.240;2024-03-02T15:19:55;3.44;36.81
75466;HTU21D;64049;46.290;44.240;2024-03-02T15:22:21;3.40;36.97
75466;HTU21D;64049;46.290;44.240;2024-03-02T15:24:47;3.36;36.93
75466;HTU21D;64049;46.290;44.240;2024-03-02T15:27:13;3.31;37.01
75466;HTU21D;64049;46.290;44.240;2024-03-02T15:29:39;3.25;37.14
75466;HTU21D;64049;46.290;44.240;2024-03-02T15:32:05;3.17;37.26
75466;HTU21D;64049;46.290;44.240;2024-03-02T15:34:33;3.10;37.40
75466;HTU21D;64049;46.290;44.240;2024-03-02T15:36:59;3.00;37.56
75466;HTU21D;64049;46.290;44.240;2024-03-02T15:39:26;2.91;37.66
75466;HTU21D;64049;46.290;44.240;2024-03-02T15:41:52;2.84;37.78
75466;HTU21D;64049;46.290;44.240;2024-03-02T15:44:18;2.73;37.88
75466;HTU21D;64049;46.290;44.240;2024-03-02T15:46:44;2.65;37.98
75466;HTU21D;64049;46.290;44.240;2024-03-02T15:49:10;2.55;38.11
75466;HTU21D;64049;46.290;44.240;2024-03-02T15:51:36;2.47;38.24
75466;HTU21D;64049;46.290;44.240;2024-03-02T15:54:07;2.44;38.21